createdAt,value
2022-08-03T00:00:26.675Z,19.77
2022-08-03T00:02:53.690Z,19.79
2022-08-03T00:05:20.597Z,19.78
2022-08-03T00:07:48.595Z,19.85
2022-08-03T00:10:17.150Z,19.87
2022-08-03T00:12:44.025Z,19.89
2022-08-03T00:15:15.221Z,19.88
2022-08-03T00:17:52.447Z,19.89
2022-08-03T00:20:19.951Z,19.97
2022-08-03T00:22:46.606Z,20.03
2022-08-03T00:25:13.434Z,19.97
2022-08-03T00:27:40.018Z,19.97
2022-08-03T00:30:07.432Z,19.96
2022-08-03T00:32:34.084Z,19.94
2022-08-03T00:35:00.700Z,19.84
2022-08-03T00:37:40.654Z,19.80
2022-08-03T00:40:10.657Z,19.74
2022-08-03T00:42:56.190Z,19.69
2022-08-03T00:45:29.303Z,19.71
2022-08-03T00:47:56.770Z,19.73
2022-08-03T00:50:25.972Z,19.71
2022-08-03T00:52:54.969Z,19.70
2022-08-03T00:55:21.943Z,19.56
2022-08-03T00:57:49.188Z,19.39
2022-08-03T01:00:20.320Z,19.26
2022-08-03T01:02:49.921Z,19.38
2022-08-03T01:05:16.646Z,19.48
2022-08-03T01:07:44.035Z,19.46
2022-08-03T01:10:32.637Z,19.35
2022-08-03T01:13:05.311Z,19.30
2022-08-03T01:15:34.683Z,19.27
2022-08-03T01:18:14.879Z,19.31
2022-08-03T01:20:46.702Z,19.25
2022-08-03T01:23:32.700Z,19.29
2022-08-03T01:26:20.500Z,19.26
2022-08-03T01:29:35.186Z,19.24
2022-08-03T01:32:59.422Z,19.21
2022-08-03T01:35:09.653Z,19.25
2022-08-03T01:37:43.810Z,19.27
2022-08-03T01:40:13.357Z,19.26
2022-08-03T01:42:41.989Z,19.15
2022-08-03T01:45:12.001Z,19.13
2022-08-03T01:47:40.031Z,19.09
2022-08-03T01:50:09.245Z,19.13
2022-08-03T01:52:38.900Z,19.22
2022-08-03T01:55:07.263Z,19.21
2022-08-03T01:58:05.267Z,19.22
2022-08-03T02:00:25.501Z,19.21
2022-08-03T02:02:54.688Z,19.17
2022-08-03T02:05:22.047Z,19.12
2022-08-03T02:07:50.188Z,19.06
2022-08-03T02:10:34.863Z,18.94
2022-08-03T02:13:05.184Z,18.84
2022-08-03T02:15:33.999Z,18.81
2022-08-03T02:18:03.390Z,18.72
2022-08-03T02:20:33.223Z,18.64
2022-08-03T02:23:00.090Z,18.56
2022-08-03T02:25:27.263Z,18.49
2022-08-03T02:28:01.777Z,18.47
2022-08-03T02:30:38.619Z,18.49
2022-08-03T02:33:10.952Z,18.42
2022-08-03T02:35:40.176Z,18.37
2022-08-03T02:38:10.165Z,18.32
2022-08-03T02:40:38.666Z,18.26
2022-08-03T02:43:12.372Z,18.22
2022-08-03T02:45:45.867Z,18.22
2022-08-03T02:48:21.020Z,18.17
2022-08-03T02:50:48.259Z,18.10
2022-08-03T02:53:17.532Z,18.02
2022-08-03T02:55:46.539Z,17.97
2022-08-03T02:58:14.657Z,17.93
2022-08-03T03:00:44.111Z,17.88
2022-08-03T03:03:11.666Z,17.84
2022-08-03T03:05:54.547Z,17.82
2022-08-03T03:08:26.756Z,17.80
2022-08-03T03:10:57.126Z,17.83
2022-08-03T03:13:24.384Z,17.82
2022-08-03T03:15:52.425Z,17.88
2022-08-03T03:18:22.921Z,17.91
2022-08-03T03:20:51.476Z,17.90
2022-08-03T03:23:18.278Z,17.90
2022-08-03T03:25:45.724Z,17.91
2022-08-03T03:28:12.632Z,17.85
2022-08-03T03:30:39.347Z,17.84
2022-08-03T03:33:06.337Z,17.82
2022-08-03T03:35:38.860Z,17.79
2022-08-03T03:38:07.348Z,17.77
2022-08-03T03:40:38.175Z,17.76
2022-08-03T03:43:08.815Z,17.71
2022-08-03T03:45:36.005Z,17.65
2022-08-03T03:48:05.224Z,17.58
2022-08-03T03:50:33.379Z,17.54
2022-08-03T03:53:00.124Z,17.57
2022-08-03T03:55:26.779Z,17.57
2022-08-03T03:57:53.564Z,17.55
2022-08-03T04:00:20.823Z,17.50
2022-08-03T04:02:47.729Z,17.42
2022-08-03T04:05:33.914Z,17.42
2022-08-03T04:08:26.572Z,17.41
2022-08-03T04:11:14.871Z,17.37
2022-08-03T04:13:49.359Z,17.29
2022-08-03T04:16:19.588Z,17.23
2022-08-03T04:18:51.162Z,17.15
2022-08-03T04:21:19.908Z,17.09
2022-08-03T04:23:49.869Z,17.06
2022-08-03T04:26:21.394Z,17.00
2022-08-03T04:28:51.256Z,16.97
2022-08-03T04:31:22.147Z,16.96
2022-08-03T04:33:50.866Z,17.03
2022-08-03T04:36:22.248Z,17.13
2022-08-03T04:38:57.820Z,17.24
2022-08-03T04:41:27.505Z,17.36
2022-08-03T04:43:56.276Z,17.52
2022-08-03T04:46:26.288Z,17.66
2022-08-03T04:48:53.699Z,17.75
2022-08-03T04:51:21.166Z,17.79
2022-08-03T04:53:47.799Z,17.83
2022-08-03T04:56:14.576Z,17.88
2022-08-03T04:58:41.194Z,17.91
2022-08-03T05:01:07.942Z,17.95
2022-08-03T05:03:34.715Z,18.00
2022-08-03T05:06:10.011Z,18.06
2022-08-03T05:08:46.254Z,18.13
2022-08-03T05:11:15.594Z,18.24
2022-08-03T05:13:42.768Z,18.35
2022-08-03T05:16:09.372Z,18.47
2022-08-03T05:18:36.218Z,18.59
2022-08-03T05:21:02.896Z,18.71
2022-08-03T05:23:29.524Z,18.86
2022-08-03T05:25:56.162Z,18.99
2022-08-03T05:28:23.318Z,19.15
2022-08-03T05:30:50.801Z,19.30
2022-08-03T05:33:17.556Z,19.43
2022-08-03T05:35:55.941Z,19.52
2022-08-03T05:38:34.868Z,19.76
2022-08-03T05:41:21.523Z,20.18
2022-08-03T05:43:54.833Z,20.85
2022-08-03T05:46:24.447Z,21.50
2022-08-03T05:48:51.706Z,22.45
2022-08-03T05:51:18.512Z,23.29
2022-08-03T05:53:45.255Z,23.91
2022-08-03T05:56:14.507Z,24.68
2022-08-03T05:58:47.764Z,25.05
2022-08-03T06:01:16.295Z,25.03
2022-08-03T06:03:43.268Z,25.55
2022-08-03T06:06:11.435Z,25.66
2022-08-03T06:08:38.339Z,26.31
2022-08-03T06:11:04.956Z,26.81
2022-08-03T06:13:32.294Z,26.78
2022-08-03T06:15:58.976Z,27.07
2022-08-03T06:18:25.777Z,27.84
2022-08-03T06:20:52.792Z,28.08
2022-08-03T06:23:19.735Z,27.88
2022-08-03T06:25:46.946Z,27.79
2022-08-03T06:28:51.803Z,27.86
2022-08-03T06:31:06.440Z,27.60
2022-08-03T06:34:30.402Z,27.83
2022-08-03T06:36:19.627Z,28.76
2022-08-03T06:38:46.223Z,28.88
2022-08-03T06:41:13.036Z,28.84
2022-08-03T06:44:03.782Z,29.21
2022-08-03T06:46:26.191Z,28.93
2022-08-03T06:48:53.263Z,29.07
2022-08-03T06:51:19.923Z,29.50
2022-08-03T06:53:46.622Z,28.91
2022-08-03T06:56:13.490Z,29.02
2022-08-03T06:58:40.158Z,28.98
2022-08-03T07:01:06.917Z,29.17
2022-08-03T07:03:33.647Z,28.92
2022-08-03T07:06:00.347Z,28.20
2022-08-03T07:08:33.576Z,28.59
2022-08-03T07:11:00.674Z,29.50
2022-08-03T07:13:27.256Z,29.83
2022-08-03T07:15:55.976Z,29.10
2022-08-03T07:18:29.609Z,28.42
2022-08-03T07:20:58.204Z,28.56
2022-08-03T07:23:25.703Z,27.94
2022-08-03T07:25:52.514Z,28.69
2022-08-03T07:28:20.019Z,27.42
2022-08-03T07:30:47.055Z,26.50
2022-08-03T07:33:13.764Z,25.88
2022-08-03T07:35:40.556Z,25.62
2022-08-03T07:40:33.885Z,25.90
2022-08-03T07:43:00.543Z,25.73
2022-08-03T07:45:27.334Z,25.68
2022-08-03T07:47:54.537Z,25.65
2022-08-03T07:50:22.314Z,25.80
2022-08-03T07:52:50.171Z,25.87
2022-08-03T07:55:19.256Z,25.63
2022-08-03T07:57:45.921Z,25.74
2022-08-03T08:00:18.162Z,25.61
2022-08-03T08:02:45.400Z,25.44
2022-08-03T08:05:12.739Z,25.53
2022-08-03T08:07:40.661Z,25.60
2022-08-03T08:10:10.245Z,25.77
2022-08-03T08:12:41.165Z,25.64
2022-08-03T08:15:09.697Z,25.40
2022-08-03T08:17:47.107Z,25.51
2022-08-03T08:20:27.061Z,25.90
2022-08-03T08:22:58.277Z,26.15
2022-08-03T08:25:28.536Z,26.14
2022-08-03T08:28:31.451Z,25.92
2022-08-03T08:30:42.223Z,25.77
2022-08-03T08:33:22.335Z,25.95
2022-08-03T08:35:49.610Z,26.18
2022-08-03T08:38:16.248Z,25.78
2022-08-03T08:40:43.002Z,25.54
2022-08-03T08:43:09.805Z,25.57
2022-08-03T08:45:37.256Z,25.77
2022-08-03T08:48:08.184Z,25.92
2022-08-03T08:50:37.540Z,26.09
2022-08-03T08:53:09.790Z,26.21
2022-08-03T08:55:58.384Z,26.10
2022-08-03T08:58:30.629Z,25.85
2022-08-03T09:00:57.613Z,25.98
2022-08-03T09:03:30.442Z,25.84
2022-08-03T09:06:00.816Z,25.87
2022-08-03T09:08:29.238Z,25.62
2022-08-03T09:10:55.991Z,25.94
2022-08-03T09:16:17.274Z,25.78
2022-08-03T09:18:50.544Z,26.15
2022-08-03T09:21:32.818Z,26.05
2022-08-03T09:24:07.017Z,25.96
2022-08-03T09:26:37.030Z,26.13
2022-08-03T09:29:13.874Z,26.49
2022-08-03T09:31:47.384Z,26.51
2022-08-03T09:34:16.241Z,26.39
2022-08-03T09:36:48.434Z,26.50
2022-08-03T09:39:40.626Z,26.34
2022-08-03T09:42:18.733Z,26.75
2022-08-03T09:44:51.765Z,26.66
2022-08-03T09:47:33.568Z,26.92
2022-08-03T09:50:02.655Z,26.91
2022-08-03T09:52:49.867Z,27.18
2022-08-03T09:56:31.567Z,27.54
2022-08-03T09:58:11.398Z,27.59
2022-08-03T10:01:07.866Z,27.38
2022-08-03T10:04:04.040Z,27.73
2022-08-03T10:06:31.615Z,27.59
2022-08-03T10:09:13.812Z,26.85
2022-08-03T10:11:42.630Z,26.95
2022-08-03T10:14:20.111Z,26.93
2022-08-03T10:16:47.778Z,26.99
2022-08-03T10:19:15.752Z,27.27
2022-08-03T10:21:53.654Z,27.29
2022-08-03T10:24:26.146Z,27.52
2022-08-03T10:27:08.200Z,26.92
2022-08-03T10:29:41.127Z,26.85
2022-08-03T10:32:14.700Z,27.01
2022-08-03T10:34:44.867Z,27.00
2022-08-03T10:37:13.414Z,26.74
2022-08-03T10:39:53.543Z,27.00
2022-08-03T10:42:26.295Z,27.21
2022-08-03T10:45:12.156Z,27.85
2022-08-03T10:47:40.864Z,27.73
2022-08-03T10:50:08.662Z,27.61
2022-08-03T10:52:41.345Z,27.54
2022-08-03T10:56:01.699Z,27.83
2022-08-03T10:58:37.238Z,28.23
2022-08-03T11:01:08.978Z,28.53
2022-08-03T11:03:55.588Z,28.27
2022-08-03T11:06:24.867Z,28.76
2022-08-03T11:09:11.674Z,28.51
2022-08-03T11:11:43.411Z,28.16
2022-08-03T11:14:12.522Z,28.18
2022-08-03T11:16:47.970Z,28.02
2022-08-03T11:19:17.893Z,27.63
2022-08-03T11:21:53.498Z,27.85
2022-08-03T11:24:39.331Z,28.08
2022-08-03T11:27:15.146Z,28.30
2022-08-03T11:30:02.034Z,28.51
2022-08-03T11:32:37.596Z,28.78
2022-08-03T11:35:12.246Z,28.61
2022-08-03T11:38:02.447Z,29.10
2022-08-03T11:40:48.120Z,28.71
2022-08-03T11:43:31.436Z,28.76
2022-08-03T11:46:03.486Z,28.65
2022-08-03T11:48:43.163Z,28.72
2022-08-03T11:51:40.687Z,29.35
2022-08-03T11:54:07.812Z,29.14
2022-08-03T11:56:49.241Z,29.27
2022-08-03T11:59:21.731Z,29.65
2022-08-03T12:01:49.795Z,29.46
2022-08-03T12:04:16.577Z,29.18
2022-08-03T12:07:01.336Z,29.17
2022-08-03T12:09:28.070Z,29.16
2022-08-03T12:11:59.795Z,29.47
2022-08-03T12:14:50.075Z,29.31
2022-08-03T12:17:16.564Z,29.68
2022-08-03T12:19:44.091Z,29.98
2022-08-03T12:22:10.734Z,29.86
2022-08-03T12:24:42.481Z,29.95
2022-08-03T12:27:09.436Z,30.35
2022-08-03T12:29:36.589Z,30.81
2022-08-03T12:32:03.375Z,30.98
2022-08-03T12:34:47.737Z,31.14
2022-08-03T12:37:29.817Z,31.33
2022-08-03T12:40:09.590Z,31.17
2022-08-03T12:42:38.814Z,31.41
2022-08-03T12:45:26.540Z,30.79
2022-08-03T12:48:02.094Z,30.69
2022-08-03T12:50:28.842Z,30.90
2022-08-03T12:52:56.598Z,31.20
2022-08-03T12:55:24.683Z,31.22
2022-08-03T12:57:51.420Z,31.67
2022-08-03T13:00:28.927Z,32.19
2022-08-03T13:03:39.457Z,32.36
2022-08-03T13:05:55.787Z,31.90
2022-08-03T13:08:24.765Z,32.15
2022-08-03T13:10:52.016Z,32.28
2022-08-03T13:13:20.735Z,32.35
2022-08-03T13:15:47.962Z,32.57
2022-08-03T13:18:17.275Z,32.74
2022-08-03T13:20:44.384Z,32.58
2022-08-03T13:23:22.042Z,31.79
2022-08-03T13:25:55.960Z,32.01
2022-08-03T13:28:23.125Z,32.42
2022-08-03T13:30:49.839Z,32.28
2022-08-03T13:33:16.519Z,32.69
2022-08-03T13:35:43.162Z,32.74
2022-08-03T13:38:09.764Z,32.54
2022-08-03T13:40:41.802Z,32.57
2022-08-03T13:43:09.003Z,32.53
2022-08-03T13:45:36.029Z,32.93
2022-08-03T13:48:02.630Z,32.61
2022-08-03T13:50:30.218Z,32.50
2022-08-03T13:52:57.935Z,31.91
2022-08-03T13:55:24.682Z,31.97
2022-08-03T13:58:06.522Z,31.92
2022-08-03T14:00:34.129Z,31.98
2022-08-03T14:03:10.818Z,32.12
2022-08-03T14:05:41.002Z,31.98
2022-08-03T14:08:07.881Z,32.20
2022-08-03T14:10:39.729Z,31.84
2022-08-03T14:13:08.807Z,32.00
2022-08-03T14:15:37.758Z,32.36
2022-08-03T14:18:05.793Z,32.24
2022-08-03T14:20:38.567Z,32.79
2022-08-03T14:23:15.817Z,32.93
2022-08-03T14:25:49.955Z,32.94
2022-08-03T14:28:23.046Z,31.64
2022-08-03T14:30:53.966Z,32.06
2022-08-03T14:33:20.796Z,32.52
2022-08-03T14:35:48.795Z,32.72
2022-08-03T14:38:15.734Z,32.65
2022-08-03T14:40:42.459Z,32.74
2022-08-03T14:43:09.514Z,32.84
2022-08-03T14:45:36.117Z,32.90
2022-08-03T14:50:32.766Z,32.78
2022-08-03T14:50:52.713Z,32.92
2022-08-03T14:53:20.112Z,32.32
2022-08-03T14:55:50.900Z,31.22
2022-08-03T14:58:20.764Z,31.60
2022-08-03T15:00:48.660Z,31.53
2022-08-03T15:03:17.117Z,31.91
2022-08-03T15:05:44.702Z,31.47
2022-08-03T15:08:11.724Z,31.52
2022-08-03T15:10:44.860Z,32.06
2022-08-03T15:13:13.128Z,32.28
2022-08-03T15:15:40.480Z,32.30
2022-08-03T15:18:07.170Z,32.18
2022-08-03T15:20:43.955Z,32.58
2022-08-03T15:23:13.093Z,32.70
2022-08-03T15:26:28.423Z,32.75
2022-08-03T15:28:26.696Z,32.49
2022-08-03T15:30:53.319Z,32.49
2022-08-03T15:33:20.269Z,31.24
2022-08-03T15:35:48.032Z,31.96
2022-08-03T15:38:14.820Z,32.71
2022-08-03T15:40:41.770Z,32.95
2022-08-03T15:43:08.432Z,32.63
2022-08-03T15:45:37.721Z,32.64
2022-08-03T15:48:07.614Z,32.63
2022-08-03T15:50:34.630Z,32.89
2022-08-03T15:53:01.199Z,33.03
2022-08-03T15:55:27.919Z,32.72
2022-08-03T15:59:03.848Z,32.85
2022-08-03T16:00:43.325Z,32.76
2022-08-03T16:03:10.501Z,32.82
2022-08-03T16:05:37.162Z,33.01
2022-08-03T16:08:05.667Z,32.83
2022-08-03T16:10:34.773Z,32.59
2022-08-03T16:13:01.376Z,32.44
2022-08-03T16:15:28.179Z,32.18
2022-08-03T16:17:54.880Z,32.57
2022-08-03T16:20:31.396Z,32.82
2022-08-03T16:23:10.846Z,32.38
2022-08-03T16:25:44.360Z,32.33
2022-08-03T16:28:16.109Z,32.49
2022-08-03T16:30:44.708Z,32.17
2022-08-03T16:33:16.676Z,32.34
2022-08-03T16:35:46.315Z,32.30
2022-08-03T16:38:18.582Z,32.66
2022-08-03T16:40:47.369Z,33.19
2022-08-03T16:43:18.094Z,33.76
2022-08-03T16:45:49.320Z,34.31
2022-08-03T16:48:16.697Z,34.17
2022-08-03T16:50:44.458Z,33.95
2022-08-03T16:53:15.577Z,33.61
2022-08-03T16:55:53.705Z,33.61
2022-08-03T16:58:34.868Z,34.11
2022-08-03T17:01:21.846Z,34.54
2022-08-03T17:04:04.517Z,35.43
2022-08-03T17:06:44.968Z,34.93
2022-08-03T17:09:15.272Z,33.22
2022-08-03T17:11:47.764Z,33.73
2022-08-03T17:14:16.607Z,32.94
2022-08-03T17:16:52.450Z,32.21
2022-08-03T17:19:23.287Z,31.75
2022-08-03T17:21:59.715Z,31.69
2022-08-03T17:24:30.125Z,31.94
2022-08-03T17:27:02.034Z,31.27
2022-08-03T17:29:30.125Z,30.94
2022-08-03T17:31:56.921Z,30.77
2022-08-03T17:34:26.324Z,30.52
2022-08-03T17:37:27.373Z,30.49
2022-08-03T17:39:58.114Z,30.37
2022-08-03T17:42:30.769Z,30.25
2022-08-03T17:45:06.716Z,30.19
2022-08-03T17:47:41.921Z,30.03
2022-08-03T17:50:23.603Z,29.89
2022-08-03T17:53:00.954Z,29.98
2022-08-03T17:55:54.749Z,29.86
2022-08-03T17:58:41.561Z,29.74
2022-08-03T18:01:59.778Z,29.58
2022-08-03T18:04:30.131Z,29.49
2022-08-03T18:06:59.574Z,29.57
2022-08-03T18:10:05.316Z,29.51
2022-08-03T18:12:26.759Z,29.39
2022-08-03T18:15:01.185Z,29.32
2022-08-03T18:17:55.063Z,29.20
2022-08-03T18:20:31.310Z,29.09
2022-08-03T18:23:04.803Z,28.95
2022-08-03T18:25:42.737Z,28.79
2022-08-03T18:28:14.513Z,28.61
2022-08-03T18:30:53.613Z,28.47
2022-08-03T18:34:16.413Z,28.32
2022-08-03T18:36:17.832Z,28.17
2022-08-03T18:38:47.480Z,28.10
2022-08-03T18:41:22.173Z,28.10
2022-08-03T18:44:08.719Z,28.07
2022-08-03T18:46:47.544Z,28.03
2022-08-03T18:49:37.552Z,28.10
2022-08-03T18:52:13.219Z,28.25
2022-08-03T18:55:20.502Z,28.19
2022-08-03T18:58:18.236Z,28.13
2022-08-03T19:00:59.246Z,28.05
2022-08-03T19:03:42.817Z,27.99
2022-08-03T19:06:19.701Z,27.87
2022-08-03T19:08:52.423Z,27.70
2022-08-03T19:12:13.337Z,27.61
2022-08-03T19:14:45.975Z,27.46
2022-08-03T19:17:14.155Z,27.46
2022-08-03T19:19:50.808Z,27.45
2022-08-03T19:22:21.340Z,27.39
2022-08-03T19:24:51.704Z,27.29
2022-08-03T19:27:20.885Z,27.24
2022-08-03T19:29:58.838Z,27.20
2022-08-03T19:32:31.819Z,27.08
2022-08-03T19:35:04.066Z,27.00
2022-08-03T19:37:37.989Z,26.91
2022-08-03T19:40:10.264Z,26.80
2022-08-03T19:42:41.400Z,26.70
2022-08-03T19:45:11.379Z,26.63
2022-08-03T19:48:00.124Z,26.58
2022-08-03T19:50:27.555Z,26.48
2022-08-03T19:52:57.828Z,26.34
2022-08-03T19:55:28.256Z,26.27
2022-08-03T19:58:01.133Z,26.22
2022-08-03T20:00:30.482Z,26.12
2022-08-03T20:03:05.087Z,26.04
2022-08-03T20:05:52.397Z,26.03
2022-08-03T20:08:21.189Z,26.05
2022-08-03T20:10:49.120Z,26.09
2022-08-03T20:13:19.339Z,26.08
2022-08-03T20:15:46.954Z,26.05
2022-08-03T20:18:16.990Z,26.03
2022-08-03T20:20:48.566Z,26.06
2022-08-03T20:23:19.894Z,26.07
2022-08-03T20:25:58.411Z,26.00
2022-08-03T20:28:50.251Z,25.92
2022-08-03T20:31:19.250Z,25.87
2022-08-03T20:33:49.258Z,25.87
2022-08-03T20:36:18.587Z,25.81
2022-08-03T20:38:50.989Z,25.80
2022-08-03T20:41:19.396Z,25.75
2022-08-03T20:43:49.292Z,25.69
2022-08-03T20:46:31.963Z,25.63
2022-08-03T20:49:05.282Z,25.57
2022-08-03T20:51:49.003Z,25.52
2022-08-03T20:54:29.681Z,25.39
2022-08-03T20:57:03.493Z,25.19
2022-08-03T20:59:47.145Z,25.00
2022-08-03T21:02:19.865Z,24.78
2022-08-03T21:04:56.042Z,24.65
2022-08-03T21:08:04.336Z,24.54
2022-08-03T21:10:15.593Z,24.45
2022-08-03T21:13:16.241Z,24.36
2022-08-03T21:16:06.081Z,24.33
2022-08-03T21:18:49.763Z,24.24
2022-08-03T21:21:18.759Z,24.18
2022-08-03T21:23:49.928Z,24.10
2022-08-03T21:26:22.713Z,24.04
2022-08-03T21:28:50.987Z,24.01
2022-08-03T21:31:24.649Z,23.95
2022-08-03T21:34:02.229Z,23.93
2022-08-03T21:36:32.266Z,23.88
2022-08-03T21:38:59.650Z,23.86
2022-08-03T21:41:31.659Z,23.80
2022-08-03T21:43:59.627Z,23.70
2022-08-03T21:46:29.570Z,23.66
2022-08-03T21:50:04.247Z,23.61
2022-08-03T21:51:52.203Z,23.60
2022-08-03T21:54:21.676Z,23.69
2022-08-03T21:56:51.332Z,23.86
2022-08-03T21:59:20.368Z,23.96
2022-08-03T22:01:49.229Z,23.95
2022-08-03T22:04:50.570Z,23.94
2022-08-03T22:07:07.954Z,23.87
2022-08-03T22:09:35.855Z,23.81
2022-08-03T22:12:02.805Z,23.74
2022-08-03T22:14:32.181Z,23.71
2022-08-03T22:16:59.654Z,23.76
2022-08-03T22:19:26.595Z,23.70
2022-08-03T22:21:54.456Z,23.72
2022-08-03T22:24:25.603Z,23.73
2022-08-03T22:27:10.724Z,23.73
2022-08-03T22:29:42.026Z,23.65
2022-08-03T22:32:08.852Z,23.60
2022-08-03T22:34:37.294Z,23.50
2022-08-03T22:37:05.083Z,23.41
2022-08-03T22:39:32.335Z,23.34
2022-08-03T22:41:59.568Z,23.34
2022-08-03T22:44:27.401Z,23.39
2022-08-03T22:46:55.531Z,23.42
2022-08-03T22:49:22.806Z,23.39
2022-08-03T22:51:51.725Z,23.45
2022-08-03T22:54:18.757Z,23.45
2022-08-03T22:56:50.157Z,23.43
2022-08-03T22:59:41.042Z,23.47
2022-08-03T23:02:21.161Z,23.40
2022-08-03T23:04:57.406Z,23.41
2022-08-03T23:07:33.719Z,23.45
2022-08-03T23:10:03.803Z,23.46
2022-08-03T23:12:34.275Z,23.30
2022-08-03T23:15:02.836Z,23.05
2022-08-03T23:17:32.507Z,22.78
2022-08-03T23:20:08.251Z,22.59
2022-08-03T23:22:38.357Z,22.37
2022-08-03T23:25:10.583Z,22.09
2022-08-03T23:27:41.940Z,21.99
2022-08-03T23:30:10.173Z,21.95
2022-08-03T23:32:37.367Z,21.96
2022-08-03T23:35:24.975Z,21.90
2022-08-03T23:38:23.017Z,21.87
2022-08-03T23:40:51.394Z,21.88
2022-08-03T23:43:45.143Z,21.98
2022-08-03T23:46:07.670Z,22.04
2022-08-03T23:48:34.587Z,22.10
2022-08-03T23:51:09.514Z,22.20
2022-08-03T23:53:48.324Z,22.18
2022-08-03T23:56:35.287Z,22.26
2022-08-03T23:59:30.178Z,22.53
